Time;durP1;ratioP1;P1;durP2;ratioP2;P2;SDS_P1;SDS_P2;PMS_P1;PMS_P2;Temp;Humidity;BMP_temperature;BMP_pressure;BME280_temperature;BME280_humidity;BME280_pressure;Samples;Min_cycle;Max_cycle;Signal;HPM_P1;HPM_P2
2021/01/03 00:02:23;;;;;;;7.58;4.87;;;2.10;99.90;;;;;;1881814;75;21494;-71
2021/01/03 00:04:49;;;;;;;5.53;4.00;;;2.20;99.90;;;;;;1886937;75;21155;-73
2021/01/03 00:07:15;;;;;;;9.73;4.10;;;2.20;99.90;;;;;;1884189;75;21135;-72
2021/01/03 00:09:42;;;;;;;6.97;4.58;;;2.10;99.90;;;;;;1890149;75;21078;-72
2021/01/03 00:12:08;;;;;;;7.42;4.72;;;2.10;99.90;;;;;;1889115;75;21042;-73
2021/01/03 00:14:34;;;;;;;7.35;5.17;;;2.10;99.90;;;;;;1889699;75;21082;-71
2021/01/03 00:17:00;;;;;;;7.42;4.37;;;2.00;99.90;;;;;;1883524;75;21210;-72
2021/01/03 00:19:26;;;;;;;7.22;4.42;;;2.00;99.90;;;;;;1887989;75;21190;-71
2021/01/03 00:21:52;;;;;;;4.75;3.50;;;2.10;99.90;;;;;;1892063;75;21073;-71
2021/01/03 00:24:18;;;;;;;6.50;4.15;;;2.00;99.90;;;;;;1885207;75;21161;-72
2021/01/03 00:26:44;;;;;;;7.40;4.33;;;2.00;99.90;;;;;;1881231;75;21151;-72
2021/01/03 00:29:11;;;;;;;6.47;4.08;;;2.00;99.90;;;;;;1885190;75;21128;-71
2021/01/03 00:31:37;;;;;;;5.17;3.50;;;2.00;99.90;;;;;;1887732;75;21515;-72
2021/01/03 00:34:03;;;;;;;6.28;4.03;;;2.10;99.90;;;;;;1885856;75;21042;-71
2021/01/03 00:36:30;;;;;;;9.00;4.22;;;2.00;99.90;;;;;;1892112;75;21263;-71
2021/01/03 00:38:56;;;;;;;8.48;4.35;;;2.10;99.90;;;;;;1887514;75;21562;-73
2021/01/03 00:41:22;;;;;;;5.33;3.95;;;2.00;99.90;;;;;;1885780;75;21434;-72
2021/01/03 00:43:48;;;;;;;5.12;3.60;;;2.00;99.90;;;;;;1876623;75;21532;-72
2021/01/03 00:46:14;;;;;;;7.67;3.75;;;2.00;99.90;;;;;;1886544;75;21128;-72
2021/01/03 00:48:40;;;;;;;6.45;3.92;;;2.00;99.90;;;;;;1886102;75;21075;-73
2021/01/03 00:51:06;;;;;;;6.45;4.33;;;2.00;99.90;;;;;;1890120;75;21218;-73
2021/01/03 00:53:32;;;;;;;10.28;4.10;;;2.00;99.90;;;;;;1888365;75;21149;-72
2021/01/03 00:55:58;;;;;;;8.03;4.33;;;2.00;99.90;;;;;;1887841;75;21116;-73
2021/01/03 00:58:25;;;;;;;5.58;3.72;;;2.00;99.90;;;;;;1883492;75;21147;-73
2021/01/03 01:00:51;;;;;;;6.37;3.92;;;2.00;99.90;;;;;;1883156;75;21065;-72
2021/01/03 01:03:17;;;;;;;9.13;3.80;;;2.00;99.90;;;;;;1892372;75;21141;-72
2021/01/03 01:05:43;;;;;;;7.37;3.80;;;1.90;99.90;;;;;;1888702;75;21209;-72
2021/01/03 01:08:09;;;;;;;5.60;3.75;;;1.90;99.90;;;;;;1883535;75;21144;-72
2021/01/03 01:10:35;;;;;;;7.95;3.40;;;2.00;99.90;;;;;;1889909;75;21148;-73
2021/01/03 01:13:01;;;;;;;7.10;4.03;;;2.00;99.90;;;;;;1887487;75;21420;-72
2021/01/03 01:15:27;;;;;;;8.20;3.75;;;2.00;99.90;;;;;;1888280;75;21481;-73
2021/01/03 01:17:54;;;;;;;5.05;3.22;;;2.00;99.90;;;;;;1888045;75;21139;-71
2021/01/03 01:20:20;;;;;;;5.15;3.42;;;2.00;99.90;;;;;;1887917;75;21218;-72
2021/01/03 01:22:46;;;;;;;5.35;3.45;;;2.00;99.90;;;;;;1886479;75;21231;-73
2021/01/03 01:25:12;;;;;;;6.72;3.70;;;2.00;99.90;;;;;;1887305;75;21075;-73
2021/01/03 01:27:38;;;;;;;5.90;3.52;;;1.90;99.90;;;;;;1885537;75;21073;-72
2021/01/03 01:30:04;;;;;;;3.45;2.92;;;1.90;99.90;;;;;;1882833;75;21120;-73
2021/01/03 01:32:30;;;;;;;5.62;3.80;;;1.90;99.90;;;;;;1886340;75;21078;-72
2021/01/03 01:34:56;;;;;;;7.58;3.98;;;1.90;99.90;;;;;;1894578;75;21048;-73
2021/01/03 01:37:23;;;;;;;4.92;3.17;;;1.90;99.90;;;;;;1893845;75;22016;-73
2021/01/03 01:39:49;;;;;;;6.53;4.10;;;1.90;99.90;;;;;;1887160;75;21613;-72
2021/01/03 01:42:15;;;;;;;6.60;3.90;;;1.80;99.90;;;;;;1887747;75;21089;-72
2021/01/03 01:44:41;;;;;;;4.83;3.22;;;1.80;99.90;;;;;;1886846;75;21145;-73
2021/01/03 01:47:07;;;;;;;6.03;4.12;;;1.80;99.90;;;;;;1881707;74;21065;-73
2021/01/03 01:49:33;;;;;;;4.85;3.45;;;1.70;99.90;;;;;;1879804;75;21070;-73
2021/01/03 01:52:00;;;;;;;9.00;4.50;;;1.80;99.90;;;;;;1885245;75;21081;-72
2021/01/03 01:54:26;;;;;;;7.03;3.85;;;1.70;99.90;;;;;;1888256;75;21151;-72
2021/01/03 01:56:52;;;;;;;7.10;4.28;;;1.70;99.90;;;;;;1885901;75;21039;-72
2021/01/03 01:59:18;;;;;;;5.83;3.72;;;1.70;99.90;;;;;;1887684;75;21494;-72
2021/01/03 02:01:44;;;;;;;5.72;3.98;;;1.60;99.90;;;;;;1885496;75;21494;-72
2021/01/03 02:04:10;;;;;;;4.72;3.45;;;1.60;99.90;;;;;;1888196;75;21392;-72
2021/01/03 02:06:36;;;;;;;6.35;3.77;;;1.50;99.90;;;;;;1885514;75;21074;-72
2021/01/03 02:09:02;;;;;;;6.05;3.52;;;1.50;99.90;;;;;;1887937;75;21066;-73
2021/01/03 02:11:29;;;;;;;6.70;3.90;;;1.50;99.90;;;;;;1891406;75;21086;-72
2021/01/03 02:13:55;;;;;;;5.75;3.70;;;1.40;99.90;;;;;;1894270;75;21035;-72
2021/01/03 02:16:21;;;;;;;6.70;4.50;;;1.40;99.90;;;;;;1886279;75;21050;-73
2021/01/03 02:18:47;;;;;;;8.03;4.60;;;1.30;99.90;;;;;;1884144;75;21069;-73
2021/01/03 02:21:13;;;;;;;7.78;4.72;;;1.30;99.90;;;;;;1883590;75;21074;-73
2021/01/03 02:23:39;;;;;;;8.28;4.30;;;1.30;99.90;;;;;;1884188;75;21073;-72
2021/01/03 02:26:05;;;;;;;4.90;3.92;;;1.20;99.90;;;;;;1888269;75;21169;-73
2021/01/03 02:28:31;;;;;;;8.40;4.70;;;1.30;99.90;;;;;;1887880;75;21078;-72
2021/01/03 02:30:57;;;;;;;7.80;4.70;;;1.20;99.90;;;;;;1885670;75;21284;-73
2021/01/03 02:33:24;;;;;;;6.62;4.42;;;1.10;99.90;;;;;;1884265;75;21446;-72
2021/01/03 02:35:50;;;;;;;11.15;5.05;;;1.00;99.90;;;;;;1890129;75;21502;-73
2021/01/03 02:38:17;;;;;;;14.60;4.92;;;1.00;99.90;;;;;;1890621;75;21141;-72
2021/01/03 02:40:43;;;;;;;8.23;5.17;;;1.00;99.90;;;;;;1887730;75;21156;-72
2021/01/03 02:43:10;;;;;;;6.15;4.53;;;1.00;99.90;;;;;;1889915;75;21196;-73
2021/01/03 02:48:21;;;;;;;7.65;4.30;;;1.10;99.90;;;;;;1927552;72;21095;-72
2021/01/03 02:50:47;;;;;;;6.65;4.35;;;1.20;99.90;;;;;;1927697;72;21211;-72
2021/01/03 02:53:13;;;;;;;6.15;4.60;;;1.20;99.90;;;;;;1918164;73;21151;-73
2021/01/03 02:55:39;;;;;;;11.00;4.62;;;1.20;99.90;;;;;;1924151;72;21070;-73
2021/01/03 02:58:06;;;;;;;8.83;4.35;;;1.10;99.90;;;;;;1925158;72;21139;-73
2021/01/03 03:00:32;;;;;;;7.83;4.83;;;1.10;99.90;;;;;;1933670;73;21152;-72
2021/01/03 03:02:58;;;;;;;9.13;4.87;;;1.10;99.90;;;;;;1925548;72;21520;-71
2021/01/03 03:05:24;;;;;;;9.88;5.35;;;1.00;99.90;;;;;;1925150;72;21518;-73
2021/01/03 03:07:50;;;;;;;12.58;4.97;;;1.00;99.90;;;;;;1933181;72;21485;-72
2021/01/03 03:10:16;;;;;;;8.05;4.65;;;1.00;99.90;;;;;;1925539;73;21251;-71
2021/01/03 03:12:42;;;;;;;10.58;5.25;;;1.00;99.90;;;;;;1923194;73;21083;-71
2021/01/03 03:15:08;;;;;;;11.50;5.10;;;1.00;99.90;;;;;;1929410;73;21049;-71
2021/01/03 03:17:35;;;;;;;7.03;4.85;;;1.00;99.90;;;;;;1920438;73;21078;-71
2021/01/03 03:20:01;;;;;;;8.55;5.03;;;1.00;99.90;;;;;;1934677;73;21036;-72
2021/01/03 03:22:27;;;;;;;8.43;5.10;;;1.00;99.90;;;;;;1932111;73;21145;-73
2021/01/03 03:24:53;;;;;;;8.43;5.72;;;1.00;99.90;;;;;;1927890;72;21069;-72
2021/01/03 03:27:19;;;;;;;8.13;5.03;;;1.00;99.90;;;;;;1931084;72;21136;-71
2021/01/03 03:29:45;;;;;;;10.48;4.78;;;1.00;99.90;;;;;;1930244;72;21071;-72
2021/01/03 03:32:11;;;;;;;5.70;4.75;;;1.10;99.90;;;;;;1931555;73;21078;-73
2021/01/03 03:34:37;;;;;;;9.93;5.45;;;1.00;99.90;;;;;;1925531;73;21153;-72
2021/01/03 03:37:03;;;;;;;7.50;5.78;;;1.00;99.90;;;;;;1923041;72;21042;-73
2021/01/03 03:39:30;;;;;;;7.30;5.28;;;1.10;99.90;;;;;;1925363;73;21709;-72
2021/01/03 03:41:56;;;;;;;7.25;5.28;;;1.10;99.90;;;;;;1934618;72;21475;-73
2021/01/03 03:44:22;;;;;;;7.40;5.20;;;1.10;99.90;;;;;;1928338;73;21495;-72
2021/01/03 03:46:48;;;;;;;6.75;4.90;;;1.10;99.90;;;;;;1923626;73;21075;-73
2021/01/03 03:49:14;;;;;;;8.70;5.70;;;1.10;99.90;;;;;;1922982;72;21137;-72
2021/01/03 03:51:40;;;;;;;9.73;5.78;;;1.00;99.90;;;;;;1924451;72;21113;-73
2021/01/03 03:54:06;;;;;;;8.20;5.37;;;1.00;99.90;;;;;;1926436;73;21057;-73
2021/01/03 03:56:32;;;;;;;9.98;6.50;;;1.00;99.90;;;;;;1932223;73;21132;-73
2021/01/03 03:58:58;;;;;;;7.10;5.50;;;1.00;99.90;;;;;;1927253;73;21068;-72
2021/01/03 04:01:25;;;;;;;13.45;6.72;;;1.10;99.90;;;;;;1930100;73;21169;-73
2021/01/03 04:03:51;;;;;;;10.10;6.17;;;1.00;99.90;;;;;;1927122;72;21059;-72
2021/01/03 04:06:17;;;;;;;8.88;5.30;;;1.00;99.90;;;;;;1930599;73;21083;-73
2021/01/03 04:08:43;;;;;;;9.53;5.70;;;1.10;99.90;;;;;;1929128;73;21258;-73
2021/01/03 04:11:09;;;;;;;8.40;6.00;;;1.10;99.90;;;;;;1931832;73;21048;-72
2021/01/03 04:13:36;;;;;;;10.08;6.03;;;1.20;99.90;;;;;;1933382;73;21070;-73
2021/01/03 04:16:02;;;;;;;8.88;5.65;;;1.10;99.90;;;;;;1931852;73;21066;-73
2021/01/03 04:18:28;;;;;;;8.28;5.75;;;1.10;99.90;;;;;;1927571;72;21129;-72
2021/01/03 04:20:54;;;;;;;6.30;5.12;;;1.10;99.90;;;;;;1918186;72;21561;-72
2021/01/03 04:23:21;;;;;;;10.43;5.78;;;1.10;99.90;;;;;;1923432;73;21635;-74
2021/01/03 04:25:47;;;;;;;9.43;6.58;;;1.10;99.90;;;;;;1927911;73;21475;-73
2021/01/03 04:28:13;;;;;;;9.25;5.50;;;1.10;99.90;;;;;;1924934;72;21061;-73
2021/01/03 04:30:39;;;;;;;10.30;6.53;;;1.10;99.90;;;;;;1925654;73;21070;-72
2021/01/03 04:33:05;;;;;;;8.78;6.03;;;1.00;99.90;;;;;;1925551;73;21162;-72
2021/01/03 04:35:31;;;;;;;9.95;6.78;;;0.90;99.90;;;;;;1923960;73;21035;-72
2021/01/03 04:37:57;;;;;;;7.53;5.58;;;1.00;99.90;;;;;;1922568;73;21071;-73
2021/01/03 04:40:23;;;;;;;10.05;5.62;;;0.90;99.90;;;;;;1919440;72;21062;-73
2021/01/03 04:42:49;;;;;;;10.95;6.67;;;1.00;99.90;;;;;;1923045;73;21066;-74
2021/01/03 04:45:16;;;;;;;8.75;5.87;;;1.10;99.90;;;;;;1918619;72;21066;-73
2021/01/03 04:47:42;;;;;;;13.20;6.60;;;1.10;99.90;;;;;;1911182;73;21067;-72
2021/01/03 04:50:08;;;;;;;10.68;6.33;;;1.00;99.90;;;;;;1930915;72;21047;-73
2021/01/03 04:52:34;;;;;;;10.90;5.87;;;1.00;99.90;;;;;;1915843;72;21188;-73
2021/01/03 04:55:00;;;;;;;12.82;6.58;;;1.00;99.90;;;;;;1927889;72;21147;-72
2021/01/03 04:57:26;;;;;;;9.73;6.60;;;1.10;99.90;;;;;;1932913;72;21543;-73
2021/01/03 04:59:52;;;;;;;9.20;5.95;;;1.10;99.90;;;;;;1934277;72;21555;-72
2021/01/03 05:02:18;;;;;;;8.25;5.97;;;1.10;99.90;;;;;;1928798;73;21473;-73
2021/01/03 05:04:45;;;;;;;10.53;6.97;;;1.00;99.90;;;;;;1926272;73;21051;-73
2021/01/03 05:07:11;;;;;;;10.03;6.62;;;1.00;99.90;;;;;;1922166;72;21039;-73
2021/01/03 05:09:37;;;;;;;11.97;6.70;;;1.00;99.90;;;;;;1921526;72;21069;-73
2021/01/03 05:12:03;;;;;;;15.13;7.12;;;1.00;99.90;;;;;;1927075;73;21063;-72
2021/01/03 05:14:29;;;;;;;8.43;6.20;;;1.10;99.90;;;;;;1938117;72;21071;-73
2021/01/03 05:16:55;;;;;;;9.28;6.42;;;1.00;99.90;;;;;;1931071;72;21131;-74
2021/01/03 05:19:21;;;;;;;10.08;7.05;;;1.10;99.90;;;;;;1930276;73;21075;-73
2021/01/03 05:21:47;;;;;;;10.53;6.92;;;1.10;99.90;;;;;;1927901;72;21036;-73
2021/01/03 05:24:14;;;;;;;10.72;6.97;;;1.10;99.90;;;;;;1926825;73;21065;-73
2021/01/03 05:26:40;;;;;;;10.95;6.45;;;1.20;99.90;;;;;;1926053;72;21053;-73
2021/01/03 05:29:06;;;;;;;9.53;6.70;;;1.20;99.90;;;;;;1924929;73;21154;-73
2021/01/03 05:31:32;;;;;;;10.88;6.95;;;1.10;99.90;;;;;;1931235;72;21254;-73
2021/01/03 05:33:58;;;;;;;10.45;6.70;;;1.10;99.90;;;;;;1927090;73;21176;-72
2021/01/03 05:36:24;;;;;;;10.13;6.90;;;1.10;99.90;;;;;;1939121;73;21126;-72
2021/01/03 05:38:50;;;;;;;14.33;6.58;;;1.10;99.90;;;;;;1924478;73;21158;-71
2021/01/03 05:41:16;;;;;;;11.22;7.37;;;1.10;99.90;;;;;;1926794;73;21065;-72
2021/01/03 05:43:43;;;;;;;12.45;7.35;;;1.00;99.90;;;;;;1923616;72;21128;-73
2021/01/03 05:46:09;;;;;;;12.23;7.50;;;1.00;99.90;;;;;;1920647;72;21070;-73
2021/01/03 05:48:35;;;;;;;10.45;6.87;;;1.10;99.90;;;;;;1927839;73;21185;-73
2021/01/03 05:51:01;;;;;;;10.10;6.97;;;1.10;99.90;;;;;;1923745;73;22587;-73
2021/01/03 05:53:27;;;;;;;9.83;6.28;;;1.10;99.90;;;;;;1940249;73;21166;-73
2021/01/03 05:55:53;;;;;;;13.48;7.28;;;1.10;99.90;;;;;;1934973;72;21152;-73
2021/01/03 05:58:19;;;;;;;15.28;7.65;;;1.10;99.90;;;;;;1924980;72;21075;-73
2021/01/03 06:00:45;;;;;;;10.72;6.90;;;1.00;99.90;;;;;;1925483;73;21476;-74
2021/01/03 06:03:11;;;;;;;13.45;7.22;;;0.90;99.90;;;;;;1922820;73;21441;-73
2021/01/03 06:05:38;;;;;;;12.28;8.33;;;1.00;99.90;;;;;;1920864;73;21477;-74
2021/01/03 06:08:04;;;;;;;13.32;6.85;;;1.00;99.90;;;;;;1923258;73;21043;-72
2021/01/03 06:10:30;;;;;;;12.13;8.00;;;1.00;99.90;;;;;;1926102;72;21061;-72
2021/01/03 06:12:56;;;;;;;10.78;7.28;;;1.00;99.90;;;;;;1932881;72;21071;-73
2021/01/03 06:15:22;;;;;;;10.08;7.17;;;1.10;99.90;;;;;;1920267;73;21062;-72
2021/01/03 06:17:48;;;;;;;10.08;7.47;;;1.10;99.90;;;;;;1930092;72;21136;-72
2021/01/03 06:20:14;;;;;;;10.75;7.22;;;1.10;99.90;;;;;;1927007;73;21138;-73
2021/01/03 06:22:40;;;;;;;14.90;7.05;;;1.10;99.90;;;;;;1927554;73;21114;-73
2021/01/03 06:25:07;;;;;;;12.10;7.20;;;1.20;99.90;;;;;;1923529;72;21069;-73
2021/01/03 06:27:33;;;;;;;11.60;6.45;;;1.10;99.90;;;;;;1931273;73;21067;-73
2021/01/03 06:29:59;;;;;;;10.60;7.00;;;1.10;99.90;;;;;;1933008;72;21070;-72
2021/01/03 06:32:25;;;;;;;10.93;6.65;;;1.10;99.90;;;;;;1926273;73;21078;-72
2021/01/03 06:34:51;;;;;;;12.53;7.05;;;1.10;99.90;;;;;;1925837;72;21040;-72
2021/01/03 06:37:18;;;;;;;11.00;6.28;;;1.10;99.90;;;;;;1930283;73;21071;-73
2021/01/03 06:39:44;;;;;;;10.28;5.95;;;1.10;99.90;;;;;;1927303;73;21066;-73
2021/01/03 06:42:10;;;;;;;9.85;6.45;;;1.10;99.90;;;;;;1934256;72;21258;-72
2021/01/03 06:44:36;;;;;;;9.30;6.40;;;1.00;99.90;;;;;;1917487;72;21073;-72
2021/01/03 06:47:02;;;;;;;9.13;6.35;;;1.10;99.90;;;;;;1922326;73;21062;-73
2021/01/03 06:49:30;;;;;;;13.55;6.25;;;1.10;99.90;;;;;;1926332;73;21071;-75
2021/01/03 06:51:56;;;;;;;11.68;6.62;;;1.00;99.90;;;;;;1925001;73;21124;-76
2021/01/03 06:54:22;;;;;;;12.93;6.12;;;1.10;99.90;;;;;;1931643;73;21048;-76
2021/01/03 06:56:48;;;;;;;9.03;6.22;;;1.10;99.90;;;;;;1926189;72;21077;-75
2021/01/03 06:59:14;;;;;;;10.15;5.70;;;1.10;99.90;;;;;;1931299;73;21063;-77
2021/01/03 07:01:40;;;;;;;9.90;6.05;;;1.10;99.90;;;;;;1934775;73;21140;-79
2021/01/03 07:04:07;;;;;;;10.35;6.45;;;1.10;99.90;;;;;;1931776;72;21187;-78
2021/01/03 07:06:33;;;;;;;10.32;6.08;;;1.10;99.90;;;;;;1932823;73;21198;-79
2021/01/03 07:08:59;;;;;;;13.05;6.42;;;1.10;99.90;;;;;;1922806;72;21034;-76
2021/01/03 07:11:25;;;;;;;12.18;6.67;;;1.10;99.90;;;;;;1926414;73;21065;-77
2021/01/03 07:13:51;;;;;;;8.20;6.08;;;1.10;99.90;;;;;;1933447;73;21078;-78
2021/01/03 07:16:17;;;;;;;9.20;6.10;;;1.00;99.90;;;;;;1933665;72;21546;-77
2021/01/03 07:18:43;;;;;;;14.80;7.15;;;1.00;99.90;;;;;;1923704;72;21562;-76
2021/01/03 07:21:09;;;;;;;12.07;6.03;;;0.90;99.90;;;;;;1917909;72;21558;-79
2021/01/03 07:23:36;;;;;;;11.60;7.17;;;0.90;99.90;;;;;;1910527;73;21044;-77
2021/01/03 07:26:02;;;;;;;13.88;6.10;;;1.00;99.90;;;;;;1928750;72;21073;-78
2021/01/03 07:28:28;;;;;;;10.63;6.55;;;1.10;99.90;;;;;;1930812;73;21062;-78
2021/01/03 07:30:54;;;;;;;10.45;6.75;;;1.10;99.90;;;;;;1929858;72;21084;-79
2021/01/03 07:33:20;;;;;;;9.88;6.97;;;1.10;99.90;;;;;;1934147;72;21067;-77
2021/01/03 07:35:46;;;;;;;10.00;6.25;;;1.20;99.90;;;;;;1927177;73;21079;-78
2021/01/03 07:38:12;;;;;;;13.28;6.85;;;1.10;99.90;;;;;;1928766;73;21079;-77
2021/01/03 07:40:38;;;;;;;14.43;7.60;;;1.10;99.90;;;;;;1927986;73;21552;-78
2021/01/03 07:43:04;;;;;;;10.03;7.12;;;1.10;99.90;;;;;;1924511;73;21477;-76
2021/01/03 07:45:31;;;;;;;16.80;8.23;;;1.10;99.90;;;;;;1931134;73;21501;-75
2021/01/03 07:47:57;;;;;;;11.73;7.50;;;1.10;99.90;;;;;;1922591;73;21560;-77
2021/01/03 07:50:23;;;;;;;13.93;7.90;;;1.10;99.90;;;;;;1938481;73;21071;-75
2021/01/03 07:52:49;;;;;;;12.47;7.80;;;1.10;99.90;;;;;;1927195;72;21120;-77
2021/01/03 07:55:15;;;;;;;13.53;7.42;;;1.10;99.90;;;;;;1901589;72;21030;-77
2021/01/03 07:57:42;;;;;;;15.05;8.18;;;1.20;99.90;;;;;;1919955;73;21157;-77
2021/01/03 08:00:08;;;;;;;10.93;7.33;;;1.10;99.90;;;;;;1919476;73;21077;-79
2021/01/03 08:02:34;;;;;;;11.85;7.55;;;1.20;99.90;;;;;;1920427;73;21485;-78
2021/01/03 08:05:00;;;;;;;10.35;7.50;;;1.20;99.90;;;;;;1920027;72;21469;-78
2021/01/03 08:07:26;;;;;;;9.35;6.45;;;1.20;99.90;;;;;;1929608;73;21611;-77
2021/01/03 08:09:52;;;;;;;12.45;6.75;;;1.30;99.90;;;;;;1929800;73;21190;-79
2021/01/03 08:12:19;;;;;;;8.88;6.53;;;1.30;99.90;;;;;;1928339;73;21044;-77
2021/01/03 08:14:45;;;;;;;12.95;6.95;;;1.30;99.90;;;;;;1933367;72;21082;-77
2021/01/03 08:17:11;;;;;;;9.78;6.25;;;1.30;99.90;;;;;;1929573;73;21082;-78
2021/01/03 08:19:38;;;;;;;9.95;6.20;;;1.30;99.90;;;;;;1921081;73;21078;-77
2021/01/03 08:22:04;;;;;;;13.22;6.83;;;1.20;99.90;;;;;;1919009;72;21122;-78
2021/01/03 08:24:30;;;;;;;11.15;6.62;;;1.30;99.90;;;;;;1925533;73;21490;-77
2021/01/03 08:26:56;;;;;;;10.72;7.08;;;1.30;99.90;;;;;;1928095;72;21066;-78
2021/01/03 08:29:22;;;;;;;9.20;6.60;;;1.40;99.90;;;;;;1923718;72;21062;-77
2021/01/03 08:31:48;;;;;;;9.45;6.33;;;1.40;99.90;;;;;;1929138;73;21069;-76
2021/01/03 08:34:14;;;;;;;15.75;6.87;;;1.50;99.90;;;;;;1928874;72;21128;-77
2021/01/03 08:36:40;;;;;;;10.68;6.90;;;1.50;99.90;;;;;;1934306;73;21046;-76
2021/01/03 08:39:07;;;;;;;10.40;6.58;;;1.50;99.90;;;;;;1928712;72;21117;-76
2021/01/03 08:41:33;;;;;;;10.45;6.85;;;1.50;99.90;;;;;;1932666;73;21070;-74
2021/01/03 08:43:59;;;;;;;10.95;6.00;;;1.50;99.90;;;;;;1933573;72;21065;-76
2021/01/03 08:46:25;;;;;;;13.10;7.03;;;1.60;99.90;;;;;;1929735;72;21077;-76
2021/01/03 08:48:51;;;;;;;10.08;7.03;;;1.60;99.90;;;;;;1930678;72;21546;-76
2021/01/03 08:51:17;;;;;;;13.53;7.42;;;1.50;99.90;;;;;;1927243;72;21545;-76
2021/01/03 08:53:43;;;;;;;14.50;6.62;;;1.50;99.90;;;;;;1920699;73;21583;-73
2021/01/03 08:56:09;;;;;;;11.50;6.58;;;1.50;99.90;;;;;;1931522;73;21180;-76
2021/01/03 08:58:36;;;;;;;11.85;6.47;;;1.60;99.90;;;;;;1916248;72;21266;-77
2021/01/03 09:01:02;;;;;;;9.45;6.62;;;1.60;99.90;;;;;;1931351;72;21082;-76
2021/01/03 09:03:28;;;;;;;14.28;7.35;;;1.60;99.90;;;;;;1928598;73;21547;-76
2021/01/03 09:05:54;;;;;;;17.75;8.45;;;1.60;99.90;;;;;;1924021;72;21070;-75
2021/01/03 09:08:21;;;;;;;8.65;6.35;;;1.60;99.90;;;;;;1927812;73;21307;-76
2021/01/03 09:10:47;;;;;;;10.58;7.08;;;1.60;99.90;;;;;;1929649;73;21164;-77
2021/01/03 09:13:13;;;;;;;9.08;6.80;;;1.70;99.90;;;;;;1925812;72;21200;-74
2021/01/03 09:15:39;;;;;;;10.72;7.35;;;1.70;99.90;;;;;;1927773;72;21074;-75
2021/01/03 09:18:05;;;;;;;9.08;6.70;;;1.70;99.90;;;;;;1935867;73;21062;-73
2021/01/03 09:20:31;;;;;;;15.60;7.28;;;1.70;99.90;;;;;;1940583;72;21075;-72
2021/01/03 09:22:57;;;;;;;13.72;7.05;;;1.70;99.90;;;;;;1932780;72;21058;-75
2021/01/03 09:25:23;;;;;;;11.78;8.25;;;1.70;99.90;;;;;;1938478;73;21051;-74
2021/01/03 09:27:50;;;;;;;10.30;7.03;;;1.80;99.90;;;;;;1931580;73;21230;-73
2021/01/03 09:30:16;;;;;;;10.63;6.78;;;1.90;99.90;;;;;;1934043;73;21079;-73
2021/01/03 09:32:42;;;;;;;24.00;7.15;;;1.90;99.90;;;;;;1928692;72;21071;-75
2021/01/03 09:35:08;;;;;;;13.40;7.35;;;1.90;99.90;;;;;;1925176;72;21485;-74
2021/01/03 09:37:34;;;;;;;13.43;7.45;;;1.80;99.90;;;;;;1929160;73;21457;-76
2021/01/03 09:40:00;;;;;;;15.30;7.67;;;1.70;99.90;;;;;;1926993;73;21446;-74
2021/01/03 09:42:27;;;;;;;16.27;7.72;;;1.70;99.90;;;;;;1929024;73;21060;-73
2021/01/03 09:44:53;;;;;;;11.28;6.90;;;1.60;99.90;;;;;;1931085;73;21066;-75
2021/01/03 09:47:19;;;;;;;17.30;7.70;;;1.80;99.90;;;;;;1927721;72;21066;-73
2021/01/03 09:49:45;;;;;;;18.73;9.55;;;1.80;99.90;;;;;;1929880;73;21136;-76
2021/01/03 09:52:11;;;;;;;30.60;12.98;;;1.80;99.90;;;;;;1923609;72;21147;-74
2021/01/03 09:54:37;;;;;;;23.60;9.55;;;1.90;99.90;;;;;;1913050;72;21027;-73
2021/01/03 09:57:03;;;;;;;18.98;7.20;;;2.00;99.90;;;;;;1934636;72;21083;-73
2021/01/03 09:59:30;;;;;;;14.23;7.47;;;2.10;99.90;;;;;;1922830;73;21533;-73
2021/01/03 10:01:56;;;;;;;12.55;7.05;;;2.10;99.90;;;;;;1932328;72;21449;-74
2021/01/03 10:04:22;;;;;;;10.98;7.20;;;2.00;99.90;;;;;;1932831;72;21710;-74
2021/01/03 10:06:48;;;;;;;12.18;7.00;;;1.90;99.90;;;;;;1931262;73;21587;-73
2021/01/03 10:09:14;;;;;;;12.13;6.85;;;1.90;99.90;;;;;;1926108;73;21038;-75
2021/01/03 10:11:40;;;;;;;11.30;6.85;;;1.90;99.90;;;;;;1924622;73;21073;-73
2021/01/03 10:14:06;;;;;;;10.58;6.87;;;1.90;99.90;;;;;;1924392;73;21136;-75
2021/01/03 10:16:32;;;;;;;9.93;6.72;;;1.90;99.90;;;;;;1923254;72;21067;-74
2021/01/03 10:18:59;;;;;;;11.75;7.00;;;1.90;99.90;;;;;;1923322;73;21114;-73
2021/01/03 10:21:25;;;;;;;9.55;6.55;;;1.90;99.90;;;;;;1936407;73;21187;-75
2021/01/03 10:23:51;;;;;;;11.15;6.87;;;1.90;99.90;;;;;;1937529;73;21047;-74
2021/01/03 10:26:17;;;;;;;11.57;6.90;;;1.80;99.90;;;;;;1927741;72;21136;-74
2021/01/03 10:28:43;;;;;;;13.28;6.62;;;1.90;99.90;;;;;;1921476;72;21070;-77
2021/01/03 10:31:09;;;;;;;11.48;7.15;;;1.90;99.90;;;;;;1923531;72;21054;-73
2021/01/03 10:33:35;;;;;;;10.10;6.42;;;1.80;99.90;;;;;;1922431;72;21207;-73
2021/01/03 10:36:01;;;;;;;10.28;6.65;;;1.70;99.90;;;;;;1920636;73;21224;-72
2021/01/03 10:38:28;;;;;;;13.60;7.25;;;1.70;99.90;;;;;;1928533;73;21171;-71
2021/01/03 10:40:54;;;;;;;10.80;7.55;;;1.80;99.90;;;;;;1932022;73;21124;-76
2021/01/03 10:43:20;;;;;;;10.23;6.50;;;1.90;99.90;;;;;;1924991;72;21057;-74
2021/01/03 10:45:46;;;;;;;12.98;7.10;;;1.80;99.90;;;;;;1913797;72;21065;-73
2021/01/03 10:48:12;;;;;;;15.63;6.17;;;1.80;99.90;;;;;;1927119;72;21062;-72
2021/01/03 10:50:38;;;;;;;12.90;6.72;;;1.90;99.90;;;;;;1930363;73;21219;-72
2021/01/03 10:53:04;;;;;;;10.38;7.30;;;1.90;99.90;;;;;;1925610;72;21042;-73
2021/01/03 10:55:30;;;;;;;11.20;6.87;;;1.80;99.90;;;;;;1925538;72;21136;-73
2021/01/03 10:57:57;;;;;;;11.10;6.40;;;1.90;99.90;;;;;;1929715;73;21137;-73
2021/01/03 11:00:23;;;;;;;11.33;6.45;;;2.00;99.90;;;;;;1925472;72;21061;-73
2021/01/03 11:02:49;;;;;;;9.25;6.15;;;2.00;99.90;;;;;;1932666;73;21071;-74
2021/01/03 11:05:15;;;;;;;9.73;6.33;;;2.10;99.90;;;;;;1930270;72;21137;-72
2021/01/03 11:07:42;;;;;;;13.93;7.30;;;2.20;99.90;;;;;;1919853;73;21146;-73
2021/01/03 11:10:08;;;;;;;10.58;7.25;;;2.20;99.90;;;;;;1926395;72;21063;-77
2021/01/03 11:12:34;;;;;;;13.03;7.80;;;2.10;99.90;;;;;;1937568;73;21044;-74
2021/01/03 11:15:00;;;;;;;15.10;7.95;;;1.90;99.90;;;;;;1928863;73;21071;-74
2021/01/03 11:17:26;;;;;;;11.83;7.35;;;2.00;99.90;;;;;;1931162;73;21070;-75
2021/01/03 11:19:52;;;;;;;14.68;7.62;;;2.00;99.90;;;;;;1920628;73;21136;-74
2021/01/03 11:22:18;;;;;;;12.58;6.87;;;1.80;99.90;;;;;;1921982;72;21155;-77
2021/01/03 11:24:44;;;;;;;11.75;6.40;;;1.80;99.90;;;;;;1936795;72;21188;-80
2021/01/03 11:27:11;;;;;;;20.48;6.70;;;1.90;99.90;;;;;;1927094;73;21171;-79
2021/01/03 11:29:37;;;;;;;10.93;6.90;;;2.00;99.90;;;;;;1934590;72;21063;-79
2021/01/03 11:32:03;;;;;;;12.13;6.78;;;1.90;99.90;;;;;;1902832;72;21070;-79
2021/01/03 11:34:29;;;;;;;10.40;6.47;;;1.70;99.90;;;;;;1928912;73;21133;-78
2021/01/03 11:36:55;;;;;;;9.03;5.92;;;1.80;99.90;;;;;;1938485;72;21061;-76
2021/01/03 11:39:21;;;;;;;9.80;6.28;;;1.80;99.90;;;;;;1918872;73;21075;-78
2021/01/03 11:41:47;;;;;;;11.08;6.53;;;1.90;99.90;;;;;;1930533;72;21059;-78
2021/01/03 11:44:13;;;;;;;12.05;6.90;;;2.00;99.90;;;;;;1927921;73;21161;-78
2021/01/03 11:46:40;;;;;;;13.88;7.42;;;2.10;99.90;;;;;;1921325;73;21063;-78
2021/01/03 11:49:07;;;;;;;8.75;6.42;;;2.30;99.90;;;;;;1930772;73;21069;-77
2021/01/03 11:51:33;;;;;;;9.58;6.83;;;2.20;99.90;;;;;;1934412;73;21115;-78
2021/01/03 11:54:24;;;;;;;9.23;6.08;;;2.00;99.90;;;;;;2039014;69;22361;-79
2021/01/03 11:56:52;;;;;;;9.73;6.30;;;2.10;99.90;;;;;;2015294;70;21605;-79
2021/01/03 11:59:18;;;;;;;8.88;6.65;;;2.10;99.90;;;;;;2009255;70;21072;-79
2021/01/03 12:01:44;;;;;;;10.10;6.42;;;2.20;99.90;;;;;;1964838;72;21040;-78
2021/01/03 12:04:10;;;;;;;10.28;6.35;;;2.10;99.90;;;;;;1931744;73;21538;-77
2021/01/03 12:06:36;;;;;;;9.65;6.15;;;2.30;99.90;;;;;;2006456;70;21133;-77
2021/01/03 12:09:02;;;;;;;11.03;6.65;;;2.40;99.90;;;;;;2007201;70;21524;-79
2021/01/03 12:11:28;;;;;;;10.78;7.08;;;2.50;99.90;;;;;;2010226;70;21447;-78
2021/01/03 12:13:55;;;;;;;9.33;6.17;;;2.60;99.90;;;;;;2027309;71;21065;-78
2021/01/03 12:16:22;;;;;;;12.40;7.15;;;2.60;99.90;;;;;;2016683;70;21478;-78
2021/01/03 12:18:48;;;;;;;15.72;6.67;;;2.50;99.90;;;;;;1963477;72;21113;-78
2021/01/03 12:21:14;;;;;;;16.02;6.95;;;2.60;99.90;;;;;;2005879;70;21047;-78
2021/01/03 12:23:40;;;;;;;7.92;5.67;;;2.60;99.90;;;;;;2009219;70;21028;-79
2021/01/03 12:26:06;;;;;;;9.70;6.35;;;2.70;99.90;;;;;;2007477;70;21106;-78
2021/01/03 12:28:32;;;;;;;10.28;6.20;;;2.60;99.90;;;;;;2013493;70;21183;-78
2021/01/03 12:30:58;;;;;;;12.82;6.17;;;2.60;99.90;;;;;;2009050;70;21139;-77
2021/01/03 12:33:24;;;;;;;12.07;7.20;;;2.50;99.90;;;;;;1964990;72;21052;-79
2021/01/03 12:35:51;;;;;;;11.70;7.15;;;2.30;99.90;;;;;;2010564;70;21035;-77
2021/01/03 12:38:17;;;;;;;15.28;6.70;;;2.10;99.90;;;;;;2007139;70;21028;-77
2021/01/03 12:40:43;;;;;;;12.00;6.20;;;2.30;99.90;;;;;;2010609;70;21069;-78
2021/01/03 12:43:09;;;;;;;11.53;6.45;;;2.40;99.90;;;;;;2007755;70;21040;-78
2021/01/03 12:45:35;;;;;;;16.37;6.70;;;2.30;99.90;;;;;;2012509;70;21100;-78
2021/01/03 12:48:01;;;;;;;11.18;6.42;;;2.30;99.90;;;;;;2006955;70;21121;-78